Time;durP1;ratioP1;P1;durP2;ratioP2;P2;SDS_P1;SDS_P2;PMS_P1;PMS_P2;Temp;Humidity;BMP_temperature;BMP_pressure;BME280_temperature;BME280_humidity;BME280_pressure;Samples;Min_cycle;Max_cycle;Signal;HPM_P1;HPM_P2
2021/04/24 00:00:48;;;;;;;3.67;2.70;;;;;;;6.87;44.63;97157.38;5073810;28;20040;-75
2021/04/24 00:03:14;;;;;;;3.97;2.78;;;;;;;6.82;44.81;97151.88;5072732;28;20473;-75
2021/04/24 00:05:43;;;;;;;4.72;2.75;;;;;;;6.76;44.98;97149.97;5073682;28;20029;-75
2021/04/24 00:08:12;;;;;;;5.80;3.35;;;;;;;6.71;45.10;97140.06;5073547;28;20051;-76
2021/04/24 00:10:41;;;;;;;3.40;2.65;;;;;;;6.68;45.18;97151.66;5073596;28;20043;-75
2021/04/24 00:13:10;;;;;;;2.80;2.53;;;;;;;6.63;45.48;97140.94;5073436;28;20052;-75
2021/04/24 00:15:38;;;;;;;5.07;2.90;;;;;;;6.59;45.39;97144.88;5071953;28;20056;-75
2021/04/24 00:18:06;;;;;;;4.57;2.50;;;;;;;6.58;45.64;97137.25;5073433;28;20484;-76
2021/04/24 00:20:32;;;;;;;5.20;3.20;;;;;;;6.54;45.72;97134.19;5073760;28;20028;-75
2021/04/24 00:22:59;;;;;;;4.07;3.08;;;;;;;6.49;45.85;97137.31;5072928;28;20041;-75
2021/04/24 00:25:25;;;;;;;3.30;2.95;;;;;;;6.44;45.88;97142.22;5073712;28;20040;-76
2021/04/24 00:28:10;;;;;;;3.25;2.70;;;;;;;6.40;46.02;97137.53;5073305;28;20047;-75
2021/04/24 00:30:38;;;;;;;4.53;3.25;;;;;;;6.36;46.45;97137.06;5071226;28;20477;-75
2021/04/24 00:33:06;;;;;;;4.75;3.40;;;;;;;6.27;46.27;97125.91;5073529;28;20048;-76
2021/04/24 00:35:32;;;;;;;4.30;3.22;;;;;;;6.24;46.55;97138.50;5073066;28;20041;-76
2021/04/24 00:37:59;;;;;;;5.47;3.30;;;;;;;6.20;46.68;97138.00;5073578;28;20048;-77
2021/04/24 00:40:25;;;;;;;5.72;3.65;;;;;;;6.19;46.69;97140.78;5073391;28;20032;-75
2021/04/24 00:42:51;;;;;;;5.90;3.60;;;;;;;6.17;46.69;97140.94;5073227;28;20033;-75
2021/04/24 00:45:24;;;;;;;3.78;3.35;;;;;;;6.15;47.62;97139.50;5072919;28;20044;-79
2021/04/24 00:47:52;;;;;;;4.90;3.70;;;;;;;6.10;47.09;97134.81;5073142;28;20036;-75
2021/04/24 00:50:31;;;;;;;3.83;3.42;;;;;;;6.06;47.19;97130.94;5073145;28;20406;-75
2021/04/24 00:52:58;;;;;;;4.07;3.30;;;;;;;6.00;47.37;97123.81;5073368;28;20040;-75
2021/04/24 00:55:25;;;;;;;4.18;3.05;;;;;;;5.94;47.34;97122.66;5072987;28;20040;-75
2021/04/24 00:58:07;;;;;;;8.10;3.65;;;;;;;5.90;47.37;97124.03;5072006;28;20370;-75
2021/04/24 01:00:33;;;;;;;4.55;3.47;;;;;;;5.84;47.68;97119.50;5073075;28;20044;-75
2021/04/24 01:02:59;;;;;;;4.07;3.53;;;;;;;5.82;47.68;97116.25;5072886;28;20040;-75
2021/04/24 01:05:29;;;;;;;3.53;2.83;;;;;;;5.78;48.18;97114.97;5073072;28;20044;-75
2021/04/24 01:07:56;;;;;;;5.75;3.80;;;;;;;5.74;48.08;97116.28;5072812;28;20036;-75
2021/04/24 01:10:23;;;;;;;4.63;3.58;;;;;;;5.72;48.01;97116.44;5072666;28;20044;-75
2021/04/24 01:12:50;;;;;;;6.18;2.85;;;;;;;5.68;48.34;97104.75;5072706;28;20032;-75
2021/04/24 01:15:19;;;;;;;4.57;3.33;;;;;;;5.64;48.39;97100.88;5073078;28;20040;-75
2021/04/24 01:17:46;;;;;;;4.65;3.78;;;;;;;5.60;48.30;97099.59;5070968;28;20048;-75
2021/04/24 01:20:13;;;;;;;5.15;3.50;;;;;;;5.58;48.49;97102.34;5072971;28;20048;-75
2021/04/24 01:22:42;;;;;;;6.85;3.35;;;;;;;5.54;48.42;97106.28;5072390;28;20045;-75
2021/04/24 01:25:12;;;;;;;5.55;3.50;;;;;;;5.51;48.73;97111.03;5072830;28;20041;-75
2021/04/24 01:27:39;;;;;;;4.15;3.03;;;;;;;5.49;48.58;97112.00;5072580;28;20033;-75
2021/04/24 01:30:09;;;;;;;3.80;3.42;;;;;;;5.44;49.04;97106.50;5072798;28;20043;-75
2021/04/24 01:32:36;;;;;;;6.40;3.20;;;;;;;5.40;49.06;97105.22;5072482;28;20043;-76
2021/04/24 01:35:05;;;;;;;5.03;3.20;;;;;;;5.35;49.12;97101.47;5071469;28;20059;-75
2021/04/24 01:37:31;;;;;;;5.72;3.70;;;;;;;5.33;48.93;97112.03;5072036;28;20484;-74
2021/04/24 01:39:58;;;;;;;5.38;3.38;;;;;;;5.29;49.16;97111.59;5070680;28;20060;-75
2021/04/24 01:42:24;;;;;;;4.40;3.10;;;;;;;5.26;49.20;97100.72;5074600;28;20032;-75
2021/04/24 01:44:50;;;;;;;4.28;3.45;;;;;;;5.22;49.49;97094.22;5076468;28;20037;-75
2021/04/24 01:47:16;;;;;;;5.95;3.47;;;;;;;5.16;49.56;97100.91;5076340;28;20041;-75
2021/04/24 01:49:42;;;;;;;4.03;3.47;;;;;;;5.12;49.62;97098.81;5076235;28;20041;-74
2021/04/24 01:52:08;;;;;;;4.35;3.30;;;;;;;5.09;49.56;97097.34;5076351;28;20036;-74
2021/04/24 01:54:34;;;;;;;5.90;3.47;;;;;;;5.04;49.89;97090.06;5075689;28;20045;-74
2021/04/24 01:57:01;;;;;;;4.05;3.05;;;;;;;5.03;49.79;97093.63;5076383;28;20036;-74
2021/04/24 01:59:29;;;;;;;6.20;3.45;;;;;;;4.98;50.02;97095.91;5075943;28;20048;-74
2021/04/24 02:01:57;;;;;;;4.82;3.58;;;;;;;4.97;50.19;97096.88;5076527;28;20044;-74
2021/04/24 02:04:26;;;;;;;2.95;2.65;;;;;;;4.94;50.30;97096.44;5076326;28;20032;-74
2021/04/24 02:06:52;;;;;;;7.43;3.80;;;;;;;4.90;50.33;97093.34;5075917;28;20043;-75
2021/04/24 02:09:20;;;;;;;4.00;3.40;;;;;;;4.85;50.23;97095.59;5075721;28;20035;-75
2021/04/24 02:12:10;;;;;;;4.60;3.55;;;;;;;4.83;51.54;97102.75;5076167;28;20045;-77
2021/04/24 02:14:40;;;;;;;4.68;3.75;;;;;;;4.81;50.48;97099.53;5061044;28;20051;-75
2021/04/24 02:17:10;;;;;;;4.68;3.30;;;;;;;4.80;50.66;97093.50;5075619;28;20036;-76
2021/04/24 02:19:38;;;;;;;5.07;3.90;;;;;;;4.77;50.87;97093.84;5075881;28;20024;-74
2021/04/24 02:22:05;;;;;;;5.20;3.88;;;;;;;4.74;50.73;97095.97;5075714;28;20047;-77
2021/04/24 02:24:39;;;;;;;5.78;3.83;;;;;;;4.70;51.51;97089.47;5075302;28;20036;-76
2021/04/24 02:27:07;;;;;;;3.40;2.97;;;;;;;4.69;50.93;97093.88;5057667;28;20028;-76
2021/04/24 02:29:34;;;;;;;5.72;3.67;;;;;;;4.66;50.92;97094.16;5075622;28;20044;-76
2021/04/24 02:32:00;;;;;;;4.80;3.58;;;;;;;4.63;51.13;97094.50;5076067;28;20072;-75
2021/04/24 02:34:26;;;;;;;3.63;3.10;;;;;;;4.59;51.00;97085.44;5075494;28;20056;-75
2021/04/24 02:36:53;;;;;;;4.80;3.42;;;;;;;4.54;51.13;97096.31;5075505;28;20040;-76
2021/04/24 02:39:35;;;;;;;5.05;3.40;;;;;;;4.52;51.90;97097.47;5075985;28;20039;-75
2021/04/24 02:42:06;;;;;;;4.93;3.88;;;;;;;4.47;51.19;97095.31;5074073;28;20032;-76
2021/04/24 02:44:33;;;;;;;6.90;3.80;;;;;;;4.41;51.37;97091.63;5075260;28;20052;-77
2021/04/24 02:47:00;;;;;;;5.85;3.95;;;;;;;4.38;51.62;97094.53;5065988;28;20035;-76
2021/04/24 02:49:26;;;;;;;4.93;3.95;;;;;;;4.35;51.67;97083.66;5075029;28;20051;-75
2021/04/24 02:51:54;;;;;;;5.95;3.53;;;;;;;4.30;51.95;97078.94;5075098;28;20051;-75
2021/04/24 02:54:21;;;;;;;6.47;3.50;;;;;;;4.25;51.74;97082.03;5073321;28;20040;-74
2021/04/24 02:56:48;;;;;;;4.78;3.50;;;;;;;4.19;51.78;97081.88;5075018;28;20051;-74
2021/04/24 02:59:15;;;;;;;5.63;3.55;;;;;;;4.14;51.93;97079.75;5075063;28;20043;-74
2021/04/24 03:01:43;;;;;;;4.03;3.30;;;;;;;4.14;52.13;97084.16;5075199;28;20045;-74
2021/04/24 03:04:13;;;;;;;5.80;3.20;;;;;;;4.12;52.21;97078.31;5075115;28;20037;-74
2021/04/24 03:06:40;;;;;;;3.67;3.13;;;;;;;4.08;52.37;97077.81;5073356;28;20049;-75
2021/04/24 03:09:06;;;;;;;6.10;3.60;;;;;;;4.03;52.23;97075.69;5075225;28;20044;-74
2021/04/24 03:11:33;;;;;;;6.03;3.75;;;;;;;3.98;52.58;97071.94;5074372;28;20040;-77
2021/04/24 03:14:00;;;;;;;5.20;3.63;;;;;;;3.98;52.44;97072.75;5074719;28;20036;-77
2021/04/24 03:16:26;;;;;;;5.55;3.70;;;;;;;3.97;52.56;97081.53;5073967;28;20062;-75
2021/04/24 03:18:55;;;;;;;4.40;3.60;;;;;;;3.96;52.58;97079.91;5074581;28;20037;-75
2021/04/24 03:21:23;;;;;;;6.45;3.50;;;;;;;3.95;52.72;97072.25;5074792;28;20047;-75
2021/04/24 03:23:51;;;;;;;4.82;3.75;;;;;;;3.93;52.72;97074.22;5074449;28;20088;-74
2021/04/24 03:26:17;;;;;;;5.55;3.85;;;;;;;3.92;52.98;97073.41;5074440;28;20381;-75
2021/04/24 03:28:44;;;;;;;6.32;3.40;;;;;;;3.91;53.14;97073.59;5074442;28;20466;-75
2021/04/24 03:31:10;;;;;;;5.88;3.83;;;;;;;3.88;53.08;97079.06;5074275;28;20052;-74
2021/04/24 03:33:38;;;;;;;4.05;3.28;;;;;;;3.85;53.02;97073.22;5074760;28;20405;-75
2021/04/24 03:36:05;;;;;;;5.32;3.42;;;;;;;3.83;53.21;97076.97;5074309;28;20059;-75
2021/04/24 03:38:32;;;;;;;3.90;3.50;;;;;;;3.80;53.30;97080.69;5074411;28;20043;-74
2021/04/24 03:40:58;;;;;;;5.10;3.40;;;;;;;3.77;53.41;97070.63;5072624;28;20048;-77
2021/04/24 03:43:24;;;;;;;4.82;3.60;;;;;;;3.77;53.24;97080.19;5074179;28;20052;-76
2021/04/24 03:45:51;;;;;;;4.82;3.95;;;;;;;3.74;53.27;97072.72;5074089;28;20041;-75
2021/04/24 03:48:17;;;;;;;4.85;3.72;;;;;;;3.71;53.46;97075.63;5072904;28;20033;-75
2021/04/24 03:50:43;;;;;;;7.05;4.00;;;;;;;3.70;53.56;97079.22;5073994;28;20040;-75
2021/04/24 03:53:09;;;;;;;5.18;3.95;;;;;;;3.66;53.58;97073.53;5073916;28;20028;-76
2021/04/24 03:55:36;;;;;;;4.43;3.50;;;;;;;3.61;53.66;97073.16;5073715;28;20044;-76
2021/04/24 03:58:02;;;;;;;5.07;3.60;;;;;;;3.56;53.53;97076.25;5074417;28;20044;-75
2021/04/24 04:00:30;;;;;;;4.93;3.63;;;;;;;3.52;53.81;97067.16;5074130;28;20393;-75
2021/04/24 04:03:03;;;;;;;5.53;3.47;;;;;;;3.48;54.34;97068.44;5073791;28;20044;-75
2021/04/24 04:05:32;;;;;;;4.72;3.53;;;;;;;3.44;53.96;97069.72;5073659;28;20047;-75
2021/04/24 04:07:59;;;;;;;4.30;3.55;;;;;;;3.43;53.85;97073.31;5073605;28;20025;-75
2021/04/24 04:10:26;;;;;;;6.05;3.95;;;;;;;3.40;53.89;97071.84;5074045;28;20044;-75
2021/04/24 04:12:54;;;;;;;5.68;3.92;;;;;;;3.39;54.02;97070.19;5073411;28;20036;-75
2021/04/24 04:15:21;;;;;;;5.03;4.07;;;;;;;3.40;54.10;97073.59;5073434;28;20047;-75
2021/04/24 04:17:54;;;;;;;5.50;3.80;;;;;;;3.37;54.72;97081.69;5073623;28;20040;-75
2021/04/24 04:20:21;;;;;;;5.43;3.72;;;;;;;3.37;54.35;97084.28;5073358;28;20043;-76
2021/04/24 04:22:48;;;;;;;5.82;4.43;;;;;;;3.33;54.52;97082.97;5073813;28;20040;-75
2021/04/24 04:25:15;;;;;;;7.28;4.10;;;;;;;3.31;54.55;97085.72;5073461;28;20047;-75
2021/04/24 04:27:42;;;;;;;6.40;3.80;;;;;;;3.31;54.53;97090.09;5073167;28;20063;-75
2021/04/24 04:30:11;;;;;;;5.60;3.83;;;;;;;3.29;54.85;97086.84;5073232;28;20044;-75
2021/04/24 04:32:38;;;;;;;7.25;3.65;;;;;;;3.29;54.59;97092.03;5072206;28;20477;-75
2021/04/24 04:35:06;;;;;;;4.47;3.20;;;;;;;3.29;54.64;97099.81;5072946;28;20052;-75
2021/04/24 04:37:33;;;;;;;5.40;3.75;;;;;;;3.29;54.70;97094.63;5073338;28;20041;-75
2021/04/24 04:40:00;;;;;;;4.13;3.42;;;;;;;3.28;54.81;97103.38;5073296;28;20401;-75
2021/04/24 04:42:26;;;;;;;5.60;3.92;;;;;;;3.28;54.81;97105.97;5073453;28;20053;-75
2021/04/24 04:44:53;;;;;;;6.25;3.85;;;;;;;3.29;54.81;97100.63;5073052;28;20036;-75
2021/04/24 04:47:19;;;;;;;5.95;3.97;;;;;;;3.32;54.82;97102.09;5072769;28;20045;-75
2021/04/24 04:49:46;;;;;;;6.75;3.80;;;;;;;3.38;54.98;97101.47;5073205;28;20373;-75
2021/04/24 04:52:12;;;;;;;3.90;3.45;;;;;;;3.64;55.28;97102.22;5073228;28;20037;-75
2021/04/24 04:54:38;;;;;;;4.68;3.95;;;;;;;4.02;55.20;97102.59;5073503;28;20036;-75
2021/04/24 04:57:05;;;;;;;5.15;3.97;;;;;;;4.45;55.15;97102.47;5073166;28;20036;-75
2021/04/24 04:59:31;;;;;;;7.82;4.07;;;;;;;4.82;54.69;97090.75;5072538;28;20523;-76
2021/04/24 05:01:58;;;;;;;4.45;3.45;;;;;;;5.06;54.19;97095.91;5073191;28;20043;-76
2021/04/24 05:04:24;;;;;;;4.00;3.50;;;;;;;5.31;53.55;97084.59;5072923;28;20044;-75
2021/04/24 05:06:50;;;;;;;5.80;4.40;;;;;;;5.55;53.59;97088.91;5072993;28;20056;-75
2021/04/24 05:09:22;;;;;;;5.18;3.78;;;;;;;5.89;53.28;97091.94;5072739;28;20033;-75
2021/04/24 05:11:49;;;;;;;4.43;3.88;;;;;;;6.32;53.08;97098.53;5071661;28;20500;-75
2021/04/24 05:14:16;;;;;;;4.45;3.53;;;;;;;6.63;52.53;97088.81;5071573;28;20036;-75
2021/04/24 05:16:43;;;;;;;5.28;3.88;;;;;;;6.91;52.02;97083.03;5073648;28;20377;-75
2021/04/24 05:19:10;;;;;;;4.72;4.05;;;;;;;7.23;51.52;97081.84;5077304;28;20036;-75
2021/04/24 05:21:37;;;;;;;5.10;4.05;;;;;;;7.63;51.29;97078.94;5076967;28;20040;-75
2021/04/24 05:24:05;;;;;;;4.28;3.83;;;;;;;7.92;50.62;97070.22;5077079;28;20392;-75
2021/04/24 05:26:32;;;;;;;9.25;4.43;;;;;;;8.14;50.03;97063.19;5076834;28;20039;-75
2021/04/24 05:28:58;;;;;;;5.78;4.50;;;;;;;8.31;49.39;97061.13;5076981;28;20035;-76
2021/04/24 05:31:28;;;;;;;5.70;4.45;;;;;;;8.56;48.42;97058.94;5076492;28;20068;-75
2021/04/24 05:33:54;;;;;;;4.85;4.10;;;;;;;8.83;48.71;97049.47;5076468;28;20049;-76
2021/04/24 05:36:22;;;;;;;4.40;3.95;;;;;;;9.13;48.17;97054.47;5077222;28;20036;-75
2021/04/24 05:38:49;;;;;;;5.85;4.07;;;;;;;9.45;47.66;97047.78;5076529;28;20051;-76
2021/04/24 05:41:21;;;;;;;5.35;4.10;;;;;;;9.85;46.93;97047.91;5076543;28;20032;-76
2021/04/24 05:43:54;;;;;;;7.40;4.55;;;;;;;10.34;45.02;97046.00;5076288;28;20039;-76
2021/04/24 05:46:22;;;;;;;6.03;3.72;;;;;;;10.73;45.60;97062.72;5076794;28;20036;-75
2021/04/24 05:48:49;;;;;;;3.95;3.30;;;;;;;11.08;44.93;97063.25;5076343;28;20044;-76
2021/04/24 05:51:16;;;;;;;6.22;4.35;;;;;;;11.38;44.08;97060.97;5076212;28;20043;-76
2021/04/24 05:53:44;;;;;;;4.43;4.03;;;;;;;11.40;42.78;97068.63;5076382;28;20048;-75
2021/04/24 05:56:10;;;;;;;4.88;3.80;;;;;;;11.22;42.51;97066.66;5074928;28;20040;-76
2021/04/24 05:58:37;;;;;;;7.80;4.35;;;;;;;11.28;42.37;97068.47;5076293;28;20043;-76
2021/04/24 06:01:04;;;;;;;7.20;4.32;;;;;;;11.65;42.39;97063.47;5075610;28;20400;-76
2021/04/24 06:03:30;;;;;;;5.18;3.97;;;;;;;12.02;41.78;97060.28;5076529;28;20044;-76
2021/04/24 06:05:57;;;;;;;7.18;4.07;;;;;;;12.23;40.83;97065.22;5076084;28;20374;-76
2021/04/24 06:08:23;;;;;;;6.07;4.40;;;;;;;12.09;40.29;97059.22;5075894;28;20040;-76
2021/04/24 06:10:49;;;;;;;4.80;4.30;;;;;;;11.85;39.98;97065.22;5075705;28;20044;-76
2021/04/24 06:13:16;;;;;;;4.70;3.95;;;;;;;11.70;40.01;97062.88;5076662;28;20496;-76
2021/04/24 06:15:42;;;;;;;4.55;3.80;;;;;;;11.94;40.05;97069.22;5075912;28;20052;-76
2021/04/24 06:18:09;;;;;;;4.93;4.00;;;;;;;12.22;39.78;97060.97;5075429;28;20080;-76
2021/04/24 06:20:35;;;;;;;6.25;3.58;;;;;;;12.43;39.32;97061.63;5075883;28;20035;-76
2021/04/24 06:23:01;;;;;;;4.82;3.85;;;;;;;12.73;38.73;97059.16;5075851;28;20036;-76
2021/04/24 06:25:27;;;;;;;5.78;4.32;;;;;;;12.93;38.34;97058.97;5075761;28;20393;-76
2021/04/24 06:27:55;;;;;;;5.10;4.10;;;;;;;13.08;37.73;97056.81;5075205;28;20388;-76
2021/04/24 06:30:22;;;;;;;5.22;4.22;;;;;;;13.17;37.48;97063.38;5074627;28;20397;-76
2021/04/24 06:32:50;;;;;;;5.45;4.63;;;;;;;13.19;37.04;97063.97;5075512;28;20059;-76
2021/04/24 06:35:18;;;;;;;5.07;4.20;;;;;;;13.27;37.09;97057.63;5075477;28;20032;-76
2021/04/24 06:37:44;;;;;;;6.28;4.05;;;;;;;13.57;36.97;97051.63;5075130;28;20056;-76
2021/04/24 06:40:14;;;;;;;4.80;3.97;;;;;;;13.81;36.28;97055.94;5075141;28;20059;-76
2021/04/24 06:42:40;;;;;;;4.85;4.20;;;;;;;13.80;35.96;97057.00;5075045;28;20044;-76
2021/04/24 06:45:09;;;;;;;3.78;3.47;;;;;;;13.88;35.97;97055.06;5074987;28;20464;-76
2021/04/24 06:47:35;;;;;;;5.47;4.07;;;;;;;14.09;35.91;97054.59;5074012;28;20036;-76
2021/04/24 06:50:02;;;;;;;5.75;3.70;;;;;;;14.21;35.63;97057.22;5075174;28;20041;-76
2021/04/24 06:52:29;;;;;;;4.22;3.80;;;;;;;14.27;35.32;97061.59;5075033;28;20039;-76
2021/04/24 06:54:55;;;;;;;4.47;3.90;;;;;;;14.41;35.27;97056.94;5075198;28;20044;-76
2021/04/24 06:57:21;;;;;;;9.10;4.05;;;;;;;14.63;35.08;97057.22;5074872;28;20033;-76
2021/04/24 06:59:47;;;;;;;5.30;3.78;;;;;;;14.67;34.60;97050.44;5074913;28;20453;-76
2021/04/24 07:02:14;;;;;;;4.45;3.50;;;;;;;14.55;34.59;97057.53;5074689;28;20044;-75
2021/04/24 07:04:40;;;;;;;4.60;4.15;;;;;;;14.84;34.67;97058.50;5074330;28;20119;-75
2021/04/24 07:07:07;;;;;;;4.78;4.25;;;;;;;15.14;34.34;97053.09;5074848;28;20043;-75
2021/04/24 07:09:34;;;;;;;4.82;3.70;;;;;;;15.34;34.18;97060.63;5074706;28;20036;-76
2021/04/24 07:12:00;;;;;;;5.43;4.35;;;;;;;15.50;33.90;97061.75;5074894;28;20032;-76
2021/04/24 07:14:26;;;;;;;4.13;3.72;;;;;;;15.78;33.77;97057.56;5074837;28;20045;-76
2021/04/24 07:16:52;;;;;;;5.93;3.70;;;;;;;16.05;33.50;97052.50;5073076;28;20055;-76
2021/04/24 07:19:19;;;;;;;4.55;4.00;;;;;;;16.41;33.19;97048.59;5074901;28;20037;-76
2021/04/24 07:21:45;;;;;;;7.30;4.30;;;;;;;16.54;32.50;97052.78;5074422;28;20053;-76
2021/04/24 07:24:12;;;;;;;4.80;4.30;;;;;;;16.53;32.29;97045.88;5074606;28;20048;-76
2021/04/24 07:26:39;;;;;;;4.07;3.65;;;;;;;16.72;32.30;97056.22;5074963;28;20044;-76
2021/04/24 07:29:06;;;;;;;6.32;3.92;;;;;;;16.96;32.12;97052.38;5074414;28;20037;-76
2021/04/24 07:31:33;;;;;;;6.85;4.45;;;;;;;16.88;31.67;97058.06;5074531;28;20052;-76
2021/04/24 07:34:00;;;;;;;4.82;4.22;;;;;;;16.94;31.77;97059.75;5074136;28;20041;-76
2021/04/24 07:36:28;;;;;;;5.10;3.80;;;;;;;17.21;31.88;97051.91;5073036;28;20392;-76
2021/04/24 07:38:55;;;;;;;5.30;3.42;;;;;;;17.31;31.37;97047.81;5074181;28;21074;-76
2021/04/24 07:41:23;;;;;;;5.05;3.88;;;;;;;17.37;31.30;97047.63;5073888;28;20043;-75
2021/04/24 07:43:50;;;;;;;4.85;4.22;;;;;;;17.04;30.95;97048.50;5074244;28;20037;-76
2021/04/24 07:46:17;;;;;;;6.28;4.03;;;;;;;17.00;31.39;97050.03;5074095;28;20024;-76
2021/04/24 07:48:44;;;;;;;5.13;4.10;;;;;;;16.88;31.15;97050.13;5073839;28;20055;-76
2021/04/24 07:51:10;;;;;;;5.13;4.13;;;;;;;16.63;31.18;97047.88;5072778;28;20036;-76
2021/04/24 07:53:36;;;;;;;3.60;3.30;;;;;;;16.84;31.33;97049.03;5074156;28;20044;-76
2021/04/24 07:56:03;;;;;;;5.53;4.28;;;;;;;17.22;31.12;97044.78;5073974;28;20537;-76
2021/04/24 07:58:30;;;;;;;5.05;3.85;;;;;;;17.38;30.82;97035.16;5073686;28;20060;-76
2021/04/24 08:00:56;;;;;;;5.95;3.80;;;;;;;17.66;30.52;97036.81;5074176;28;20055;-76
2021/04/24 08:03:22;;;;;;;5.85;3.83;;;;;;;17.74;30.14;97030.25;5073159;28;20056;-76
2021/04/24 08:05:48;;;;;;;4.22;3.50;;;;;;;17.91;29.91;97038.97;5073763;28;20048;-76
2021/04/24 08:08:15;;;;;;;4.85;4.05;;;;;;;17.79;29.94;97028.47;5073683;28;20044;-76
2021/04/24 08:10:41;;;;;;;5.32;4.00;;;;;;;17.89;29.92;97032.28;5073500;28;20040;-76
2021/04/24 08:13:08;;;;;;;5.22;3.92;;;;;;;18.02;29.81;97037.22;5071892;28;20043;-76
2021/04/24 08:15:34;;;;;;;3.72;3.42;;;;;;;18.14;29.74;97032.56;5073636;28;20039;-76
2021/04/24 08:18:01;;;;;;;6.18;4.20;;;;;;;18.28;29.61;97040.91;5072275;28;20040;-76
2021/04/24 08:20:28;;;;;;;6.03;4.00;;;;;;;18.45;29.76;97041.56;5073265;28;20039;-76
2021/04/24 08:22:54;;;;;;;4.03;3.17;;;;;;;18.84;29.59;97037.91;5072302;28;20374;-75
2021/04/24 08:25:20;;;;;;;5.07;3.67;;;;;;;18.86;29.20;97033.94;5073261;28;20055;-75
2021/04/24 08:27:47;;;;;;;3.95;3.65;;;;;;;18.89;29.19;97037.94;5073311;28;20396;-75
2021/04/24 08:30:15;;;;;;;4.07;3.67;;;;;;;19.17;28.86;97030.63;5073090;28;20040;-76
2021/04/24 08:32:43;;;;;;;4.57;4.13;;;;;;;19.35;28.50;97027.53;5073428;28;20053;-76
2021/04/24 08:35:10;;;;;;;4.13;3.83;;;;;;;19.41;28.22;97034.47;5073676;28;20394;-76
2021/04/24 08:37:37;;;;;;;5.22;4.28;;;;;;;19.43;28.39;97032.34;5073276;28;20032;-76
2021/04/24 08:40:08;;;;;;;5.93;3.90;;;;;;;19.69;27.94;97037.75;5073367;28;20044;-76
2021/04/24 08:42:35;;;;;;;4.57;4.05;;;;;;;19.77;27.82;97031.16;5073146;28;20024;-76
2021/04/24 08:45:14;;;;;;;3.95;3.60;;;;;;;19.85;27.85;97034.09;5073215;28;20044;-76
2021/04/24 08:47:49;;;;;;;4.38;3.83;;;;;;;20.03;27.50;97024.84;5073172;28;20397;-75
2021/04/24 08:50:27;;;;;;;6.88;4.22;;;;;;;20.11;27.14;97022.69;5073167;28;20035;-75
2021/04/24 08:52:54;;;;;;;4.28;3.90;;;;;;;20.17;27.12;97018.97;5072341;28;20473;-74
2021/04/24 08:55:23;;;;;;;6.07;3.80;;;;;;;20.16;26.31;97020.03;5073136;28;20048;-75
2021/04/24 08:57:51;;;;;;;6.22;4.50;;;;;;;19.97;26.98;97017.91;5073128;28;20389;-75
2021/04/24 09:00:22;;;;;;;5.15;4.25;;;;;;;19.58;26.88;97017.50;5072811;28;20032;-75
2021/04/24 09:02:49;;;;;;;6.05;3.90;;;;;;;19.21;27.21;97021.91;5072722;28;20048;-75
2021/04/24 09:05:17;;;;;;;5.43;3.95;;;;;;;19.15;27.31;97012.28;5072994;28;20421;-75
2021/04/24 09:07:44;;;;;;;5.10;4.15;;;;;;;19.21;27.56;97013.91;5072792;28;20397;-75
2021/04/24 09:10:15;;;;;;;3.90;3.60;;;;;;;19.39;26.93;97007.34;5072812;28;20397;-76
2021/04/24 09:12:47;;;;;;;3.90;3.50;;;;;;;19.53;26.60;97007.66;5061755;28;20051;-74
2021/04/24 09:15:20;;;;;;;4.22;3.70;;;;;;;19.82;26.44;97008.03;5072326;28;20055;-75
2021/04/24 09:17:54;;;;;;;4.68;4.10;;;;;;;19.98;26.15;96997.41;5072850;28;20040;-75
2021/04/24 09:20:21;;;;;;;;;;;;;;;19.87;25.53;96996.59;5073292;28;20039;-75
2021/04/24 09:22:58;;;;;;;4.40;4.00;;;;;;;19.94;25.50;96991.00;5072520;28;19908;-74
2021/04/24 09:25:31;;;;;;;5.28;4.05;;;;;;;19.95;25.37;96992.59;5059229;28;20036;-75
2021/04/24 09:27:58;;;;;;;7.18;4.22;;;;;;;19.94;25.82;96991.78;5072873;28;20033;-75
2021/04/24 09:30:30;;;;;;;4.43;3.60;;;;;;;19.92;25.53;96988.59;5072658;28;20047;-75
2021/04/24 09:33:04;;;;;;;4.82;4.22;;;;;;;19.92;25.01;96991.25;5072582;28;20416;-75
2021/04/24 09:36:03;;;;;;;4.63;4.22;;;;;;;19.93;26.13;96990.22;5072434;28;20048;-74
2021/04/24 09:38:32;;;;;;;4.28;3.65;;;;;;;20.03;25.70;96982.22;5049884;28;20032;-75
2021/04/24 09:41:17;;;;;;;3.90;3.50;;;;;;;20.26;25.37;96970.25;5072387;28;20033;-74
2021/04/24 09:44:00;;;;;;;4.72;4.30;;;;;;;20.35;25.02;96967.03;5072194;28;20521;-75
2021/04/24 09:46:50;;;;;;;4.57;3.80;;;;;;;20.53;25.53;96977.13;5072665;28;20036;-75
2021/04/24 09:49:24;;;;;;;4.93;4.40;;;;;;;20.86;24.91;96972.31;5066999;28;20044;-75
2021/04/24 09:51:53;;;;;;;7.10;4.45;;;;;;;20.95;24.72;96973.34;5072379;28;20037;-75
2021/04/24 09:54:22;;;;;;;4.07;3.67;;;;;;;20.90;24.77;96967.25;5072506;28;20082;-75
2021/04/24 09:57:09;;;;;;;3.90;3.50;;;;;;;20.82;23.73;96961.38;5072558;28;20037;-75
2021/04/24 09:59:51;;;;;;;4.60;3.75;;;;;;;20.92;23.66;96951.78;5061395;28;20029;-75
2021/04/24 10:02:34;;;;;;;4.63;3.90;;;;;;;20.76;23.24;96949.16;5072567;28;20040;-75
2021/04/24 10:05:20;;;;;;;5.95;4.25;;;;;;;20.69;23.23;96948.63;5076190;28;20036;-75
2021/04/24 10:07:51;;;;;;;4.57;4.10;;;;;;;20.58;24.08;96953.19;5076232;28;20047;-74
2021/04/24 10:10:23;;;;;;;5.00;3.60;;;;;;;20.58;23.60;96945.22;5075882;28;20035;-75
2021/04/24 10:13:00;;;;;;;4.18;3.67;;;;;;;20.60;23.18;96940.41;5075712;28;20032;-76
2021/04/24 10:15:53;;;;;;;5.80;4.20;;;;;;;20.55;22.93;96940.38;5076121;28;20040;-76
2021/04/24 10:18:19;;;;;;;5.82;4.05;;;;;;;20.43;23.75;96931.84;5064548;28;20060;-75
2021/04/24 10:20:47;;;;;;;4.78;3.65;;;;;;;20.58;23.94;96939.06;5075831;28;20032;-75
2021/04/24 10:23:15;;;;;;;4.15;3.78;;;;;;;20.73;23.60;96932.91;5075576;28;20346;-75
2021/04/24 10:25:41;;;;;;;4.75;3.97;;;;;;;21.06;23.40;96931.44;5075718;28;20040;-75
2021/04/24 10:28:08;;;;;;;6.57;4.10;;;;;;;21.43;23.26;96924.91;5076235;28;20468;-75
2021/04/24 10:30:34;;;;;;;4.15;3.80;;;;;;;21.56;22.96;96926.16;5075641;28;20098;-76
2021/04/24 10:33:03;;;;;;;5.22;3.95;;;;;;;21.61;22.75;96921.59;5075611;28;20048;-75
2021/04/24 10:35:31;;;;;;;4.45;4.05;;;;;;;21.56;22.42;96918.94;5075210;28;20037;-75
2021/04/24 10:38:01;;;;;;;4.20;3.88;;;;;;;21.78;22.08;96923.88;5075480;28;20059;-75
2021/04/24 10:40:27;;;;;;;4.45;4.00;;;;;;;22.06;22.08;96916.97;5076050;28;20036;-75
2021/04/24 10:42:58;;;;;;;4.95;3.97;;;;;;;22.35;21.99;96913.53;5074889;28;20044;-75
2021/04/24 10:45:33;;;;;;;4.80;3.83;;;;;;;22.55;21.37;96911.75;5075157;28;20044;-75
2021/04/24 10:48:00;;;;;;;4.20;3.90;;;;;;;22.74;21.88;96909.94;5075248;28;20040;-75
2021/04/24 10:50:39;;;;;;;6.50;4.32;;;;;;;22.84;20.65;96909.81;5074287;28;20488;-75
2021/04/24 10:53:22;;;;;;;4.55;4.15;;;;;;;22.76;21.27;96913.09;5075618;28;20028;-75
2021/04/24 10:55:54;;;;;;;5.57;4.43;;;;;;;22.86;21.55;96906.84;5064102;28;20385;-75
2021/04/24 10:58:22;;;;;;;4.72;3.88;;;;;;;22.84;21.30;96906.34;5074979;28;20036;-75
2021/04/24 11:00:57;;;;;;;5.78;3.97;;;;;;;22.83;21.48;96899.41;5075070;28;20041;-75
2021/04/24 11:03:51;;;;;;;4.00;3.60;;;;;;;22.82;21.39;96906.63;5074394;28;20039;-75
2021/04/24 11:06:21;;;;;;;4.60;3.90;;;;;;;22.78;21.42;96902.91;5063280;28;20025;-75
2021/04/24 11:08:51;;;;;;;5.18;4.50;;;;;;;22.80;21.25;96903.44;5074485;28;20032;-76
2021/04/24 11:11:19;;;;;;;6.47;4.43;;;;;;;22.50;21.14;96894.69;5074331;28;20051;-75
2021/04/24 11:13:47;;;;;;;5.38;4.40;;;;;;;22.32;21.06;96905.28;5074740;28;20037;-75
2021/04/24 11:16:15;;;;;;;6.13;4.28;;;;;;;21.97;21.02;96896.50;5074127;28;20381;-75
2021/04/24 11:18:44;;;;;;;5.03;4.18;;;;;;;21.99;21.06;96894.34;5074784;28;20477;-77
2021/04/24 11:21:16;;;;;;;3.92;3.63;;;;;;;22.24;21.70;96896.81;5073329;28;20044;-75
2021/04/24 11:23:52;;;;;;;4.57;3.95;;;;;;;22.54;20.41;96899.47;5074830;28;20389;-75
2021/04/24 11:26:23;;;;;;;4.40;4.00;;;;;;;22.63;21.08;96893.19;5074328;28;20028;-75
2021/04/24 11:29:10;;;;;;;4.38;4.03;;;;;;;22.74;20.40;96887.75;5074882;28;20036;-75
2021/04/24 11:31:42;;;;;;;3.50;3.20;;;;;;;22.86;20.59;96878.22;5061084;28;20048;-75
2021/04/24 11:34:27;;;;;;;4.43;3.63;;;;;;;23.13;20.92;96882.19;5074086;28;20047;-75
2021/04/24 11:37:13;;;;;;;;;;;;;;;23.22;19.68;96861.72;5074671;28;20039;-75
2021/04/24 11:40:18;;;;;;;5.55;3.85;;;;;;;23.35;20.22;96864.78;5063026;28;19916;-75
2021/04/24 11:42:53;;;;;;;5.28;4.00;;;;;;;23.18;20.22;96867.94;5074223;28;20384;-75
2021/04/24 11:45:49;;;;;;;3.83;3.53;;;;;;;23.17;20.26;96872.50;5073940;28;20404;-75
2021/04/24 11:48:16;;;;;;;3.60;3.30;;;;;;;23.22;20.27;96871.66;5073816;28;20401;-75